sensor_id;sensor_type;location;lat;lon;timestamp;temperature;humidity
51841;DHT22;37888;53.246;6.658;2023-06-24T00:02:09;16.30;99.90
51841;DHT22;37888;53.246;6.658;2023-06-24T00:04:35;16.30;99.90
51841;DHT22;37888;53.246;6.658;2023-06-24T00:07:01;16.20;99.90
51841;DHT22;37888;53.246;6.658;2023-06-24T00:09:27;16.10;99.90
51841;DHT22;37888;53.246;6.658;2023-06-24T00:11:57;16.10;99.90
51841;DHT22;37888;53.246;6.658;2023-06-24T00:14:27;16.10;99.90
51841;DHT22;37888;53.246;6.658;2023-06-24T00:16:54;16.20;99.90
51841;DHT22;37888;53.246;6.658;2023-06-24T00:19:23;16.20;99.90
51841;DHT22;37888;53.246;6.658;2023-06-24T00:21:50;16.20;99.90
51841;DHT22;37888;53.246;6.658;2023-06-24T00:24:20;16.30;99.90
51841;DHT22;37888;53.246;6.658;2023-06-24T00:26:51;16.30;99.90
51841;DHT22;37888;53.246;6.658;2023-06-24T00:29:18;16.30;99.90
51841;DHT22;37888;53.246;6.658;2023-06-24T00:31:43;16.20;99.90
51841;DHT22;37888;53.246;6.658;2023-06-24T00:34:09;16.20;99.90
51841;DHT22;37888;53.246;6.658;2023-06-24T00:36:35;16.20;99.90
51841;DHT22;37888;53.246;6.658;2023-06-24T00:39:02;16.20;99.90
51841;DHT22;37888;53.246;6.658;2023-06-24T00:41:30;16.20;99.90
51841;DHT22;37888;53.246;6.658;2023-06-24T00:43:56;16.20;99.90
51841;DHT22;37888;53.246;6.658;2023-06-24T00:46:26;16.20;99.90
51841;DHT22;37888;53.246;6.658;2023-06-24T00:48:56;16.20;99.90
51841;DHT22;37888;53.246;6.658;2023-06-24T00:51:22;16.20;99.90
51841;DHT22;37888;53.246;6.658;2023-06-24T00:53:57;16.20;99.90
51841;DHT22;37888;53.246;6.658;2023-06-24T00:56:28;16.20;99.90
51841;DHT22;37888;53.246;6.658;2023-06-24T00:58:57;16.30;99.90
51841;DHT22;37888;53.246;6.658;2023-06-24T01:01:24;16.20;99.90
51841;DHT22;37888;53.246;6.658;2023-06-24T01:03:50;16.20;99.90
51841;DHT22;37888;53.246;6.658;2023-06-24T01:06:16;16.20;99.90
51841;DHT22;37888;53.246;6.658;2023-06-24T01:08:43;16.20;99.90
51841;DHT22;37888;53.246;6.658;2023-06-24T01:11:09;16.20;99.90
51841;DHT22;37888;53.246;6.658;2023-06-24T01:13:34;16.20;99.90
51841;DHT22;37888;53.246;6.658;2023-06-24T01:16:13;16.20;99.90
51841;DHT22;37888;53.246;6.658;2023-06-24T01:18:44;16.20;99.90
51841;DHT22;37888;53.246;6.658;2023-06-24T01:31:46;16.10;99.90
51841;DHT22;37888;53.246;6.658;2023-06-24T01:34:29;16.00;99.90
51841;DHT22;37888;53.246;6.658;2023-06-24T01:39:50;15.90;99.90
51841;DHT22;37888;53.246;6.658;2023-06-24T01:42:19;15.90;99.90
51841;DHT22;37888;53.246;6.658;2023-06-24T01:44:48;15.90;99.90
51841;DHT22;37888;53.246;6.658;2023-06-24T01:47:20;15.90;99.90
51841;DHT22;37888;53.246;6.658;2023-06-24T01:49:48;15.90;99.90
51841;DHT22;37888;53.246;6.658;2023-06-24T01:52:15;16.00;99.90
51841;DHT22;37888;53.246;6.658;2023-06-24T01:54:42;15.90;99.90
51841;DHT22;37888;53.246;6.658;2023-06-24T01:57:11;15.90;99.90
51841;DHT22;37888;53.246;6.658;2023-06-24T01:59:38;15.80;99.90
51841;DHT22;37888;53.246;6.658;2023-06-24T02:02:06;15.80;99.90
51841;DHT22;37888;53.246;6.658;2023-06-24T02:04:33;15.70;99.90
51841;DHT22;37888;53.246;6.658;2023-06-24T02:07:03;15.70;99.90
51841;DHT22;37888;53.246;6.658;2023-06-24T02:09:31;15.60;99.90
51841;DHT22;37888;53.246;6.658;2023-06-24T02:12:00;15.60;99.90
51841;DHT22;37888;53.246;6.658;2023-06-24T02:14:27;15.60;99.90
51841;DHT22;37888;53.246;6.658;2023-06-24T02:16:56;15.70;99.90
51841;DHT22;37888;53.246;6.658;2023-06-24T02:19:25;15.70;99.90
51841;DHT22;37888;53.246;6.658;2023-06-24T02:21:51;15.70;99.90
51841;DHT22;37888;53.246;6.658;2023-06-24T02:24:19;15.70;99.90
51841;DHT22;37888;53.246;6.658;2023-06-24T02:26:45;15.80;99.90
51841;DHT22;37888;53.246;6.658;2023-06-24T02:29:13;15.80;99.90
51841;DHT22;37888;53.246;6.658;2023-06-24T02:31:39;15.80;99.90
51841;DHT22;37888;53.246;6.658;2023-06-24T02:34:05;15.80;99.90
51841;DHT22;37888;53.246;6.658;2023-06-24T02:36:31;15.80;99.90
51841;DHT22;37888;53.246;6.658;2023-06-24T02:38:57;15.80;99.90
51841;DHT22;37888;53.246;6.658;2023-06-24T02:41:22;15.80;99.90
51841;DHT22;37888;53.246;6.658;2023-06-24T02:43:48;15.80;99.90
51841;DHT22;37888;53.246;6.658;2023-06-24T02:46:15;15.80;99.90
51841;DHT22;37888;53.246;6.658;2023-06-24T02:48:42;15.80;99.90
51841;DHT22;37888;53.246;6.658;2023-06-24T02:51:10;15.80;99.90
51841;DHT22;37888;53.246;6.658;2023-06-24T02:53:39;15.70;99.90
51841;DHT22;37888;53.246;6.658;2023-06-24T02:56:06;15.70;99.90
51841;DHT22;37888;53.246;6.658;2023-06-24T02:58:33;15.70;99.90
51841;DHT22;37888;53.246;6.658;2023-06-24T03:01:04;15.60;99.90
51841;DHT22;37888;53.246;6.658;2023-06-24T03:03:34;15.70;99.90
51841;DHT22;37888;53.246;6.658;2023-06-24T03:06:01;15.70;99.90
51841;DHT22;37888;53.246;6.658;2023-06-24T03:08:28;15.60;99.90
51841;DHT22;37888;53.246;6.658;2023-06-24T03:10:55;15.60;99.90
51841;DHT22;37888;53.246;6.658;2023-06-24T03:13:22;15.60;99.90
51841;DHT22;37888;53.246;6.658;2023-06-24T03:15:48;15.60;99.90
51841;DHT22;37888;53.246;6.658;2023-06-24T03:18:14;15.50;99.90
51841;DHT22;37888;53.246;6.658;2023-06-24T03:20:41;15.60;99.90
51841;DHT22;37888;53.246;6.658;2023-06-24T03:23:07;15.50;99.90
51841;DHT22;37888;53.246;6.658;2023-06-24T03:25:33;15.50;99.90
51841;DHT22;37888;53.246;6.658;2023-06-24T03:27:59;15.50;99.90
51841;DHT22;37888;53.246;6.658;2023-06-24T03:30:26;15.50;99.90
51841;DHT22;37888;53.246;6.658;2023-06-24T03:32:52;15.50;99.90
51841;DHT22;37888;53.246;6.658;2023-06-24T03:35:18;15.50;99.90
51841;DHT22;37888;53.246;6.658;2023-06-24T03:37:44;15.50;99.90
51841;DHT22;37888;53.246;6.658;2023-06-24T03:40:10;15.50;99.90
51841;DHT22;37888;53.246;6.658;2023-06-24T03:42:36;15.50;99.90
51841;DHT22;37888;53.246;6.658;2023-06-24T03:45:03;15.50;99.90
51841;DHT22;37888;53.246;6.658;2023-06-24T03:47:29;15.50;99.90
51841;DHT22;37888;53.246;6.658;2023-06-24T03:49:54;15.60;99.90
51841;DHT22;37888;53.246;6.658;2023-06-24T03:52:20;15.60;99.90
51841;DHT22;37888;53.246;6.658;2023-06-24T03:54:46;15.60;99.90
51841;DHT22;37888;53.246;6.658;2023-06-24T03:57:12;15.70;99.90
51841;DHT22;37888;53.246;6.658;2023-06-24T03:59:38;15.70;99.90
51841;DHT22;37888;53.246;6.658;2023-06-24T04:02:05;15.70;99.90
51841;DHT22;37888;53.246;6.658;2023-06-24T04:04:34;15.70;99.90
51841;DHT22;37888;53.246;6.658;2023-06-24T04:07:00;15.80;99.90
51841;DHT22;37888;53.246;6.658;2023-06-24T04:09:25;15.80;99.90
51841;DHT22;37888;53.246;6.658;2023-06-24T04:11:51;15.90;99.90
51841;DHT22;37888;53.246;6.658;2023-06-24T04:14:17;15.90;99.90
51841;DHT22;37888;53.246;6.658;2023-06-24T04:16:43;15.90;99.90
51841;DHT22;37888;53.246;6.658;2023-06-24T04:19:08;15.90;99.90
51841;DHT22;37888;53.246;6.658;2023-06-24T04:21:34;15.90;99.90
51841;DHT22;37888;53.246;6.658;2023-06-24T04:24:00;15.90;99.90
51841;DHT22;37888;53.246;6.658;2023-06-24T04:26:26;15.90;99.90
51841;DHT22;37888;53.246;6.658;2023-06-24T04:28:51;16.00;99.90
51841;DHT22;37888;53.246;6.658;2023-06-24T04:31:17;16.00;99.90
51841;DHT22;37888;53.246;6.658;2023-06-24T04:33:43;16.00;99.90
51841;DHT22;37888;53.246;6.658;2023-06-24T04:36:08;16.10;99.90
51841;DHT22;37888;53.246;6.658;2023-06-24T04:38:34;16.10;99.90
51841;DHT22;37888;53.246;6.658;2023-06-24T04:41:00;16.20;99.90
51841;DHT22;37888;53.246;6.658;2023-06-24T04:43:26;16.20;99.90
51841;DHT22;37888;53.246;6.658;2023-06-24T04:45:53;16.10;99.90
51841;DHT22;37888;53.246;6.658;2023-06-24T04:48:22;16.30;99.90
51841;DHT22;37888;53.246;6.658;2023-06-24T04:50:48;16.40;99.90
51841;DHT22;37888;53.246;6.658;2023-06-24T04:53:14;16.50;99.90
51841;DHT22;37888;53.246;6.658;2023-06-24T04:55:40;16.60;99.90
51841;DHT22;37888;53.246;6.658;2023-06-24T04:58:06;16.60;99.90
51841;DHT22;37888;53.246;6.658;2023-06-24T05:00:31;16.80;99.90
51841;DHT22;37888;53.246;6.658;2023-06-24T05:02:57;16.80;99.90
51841;DHT22;37888;53.246;6.658;2023-06-24T05:05:23;17.00;99.90
51841;DHT22;37888;53.246;6.658;2023-06-24T05:07:49;17.00;99.90
51841;DHT22;37888;53.246;6.658;2023-06-24T05:10:14;17.00;99.90
51841;DHT22;37888;53.246;6.658;2023-06-24T05:12:40;17.10;99.90
51841;DHT22;37888;53.246;6.658;2023-06-24T05:15:06;17.10;99.90
51841;DHT22;37888;53.246;6.658;2023-06-24T05:17:32;17.10;99.90
51841;DHT22;37888;53.246;6.658;2023-06-24T05:19:58;17.20;99.90
51841;DHT22;37888;53.246;6.658;2023-06-24T05:22:24;17.30;99.90
51841;DHT22;37888;53.246;6.658;2023-06-24T05:24:50;17.40;99.90
51841;DHT22;37888;53.246;6.658;2023-06-24T05:27:16;17.40;99.90
51841;DHT22;37888;53.246;6.658;2023-06-24T05:29:43;17.50;99.90
51841;DHT22;37888;53.246;6.658;2023-06-24T05:32:09;17.60;99.90
51841;DHT22;37888;53.246;6.658;2023-06-24T05:34:34;17.70;99.90
51841;DHT22;37888;53.246;6.658;2023-06-24T05:37:00;17.80;99.90
51841;DHT22;37888;53.246;6.658;2023-06-24T05:39:26;17.80;99.90
51841;DHT22;37888;53.246;6.658;2023-06-24T05:41:52;17.90;99.90
51841;DHT22;37888;53.246;6.658;2023-06-24T05:44:18;18.00;99.90
51841;DHT22;37888;53.246;6.658;2023-06-24T05:46:46;18.20;99.90
51841;DHT22;37888;53.246;6.658;2023-06-24T05:49:12;18.30;99.90
51841;DHT22;37888;53.246;6.658;2023-06-24T05:51:38;18.40;99.90
51841;DHT22;37888;53.246;6.658;2023-06-24T05:54:03;18.50;99.90
51841;DHT22;37888;53.246;6.658;2023-06-24T05:56:29;18.70;99.90
51841;DHT22;37888;53.246;6.658;2023-06-24T05:58:55;18.90;99.90
51841;DHT22;37888;53.246;6.658;2023-06-24T06:01:21;19.10;99.90
51841;DHT22;37888;53.246;6.658;2023-06-24T06:03:47;19.20;99.90
51841;DHT22;37888;53.246;6.658;2023-06-24T06:06:13;19.40;99.90
51841;DHT22;37888;53.246;6.658;2023-06-24T06:09:01;19.60;99.90
51841;DHT22;37888;53.246;6.658;2023-06-24T06:11:28;19.90;99.90
51841;DHT22;37888;53.246;6.658;2023-06-24T06:13:53;20.50;99.90
51841;DHT22;37888;53.246;6.658;2023-06-24T06:16:19;21.10;99.90
51841;DHT22;37888;53.246;6.658;2023-06-24T06:18:45;21.50;99.90
51841;DHT22;37888;53.246;6.658;2023-06-24T06:21:11;22.30;99.90
51841;DHT22;37888;53.246;6.658;2023-06-24T06:26:03;22.50;99.90
51841;DHT22;37888;53.246;6.658;2023-06-24T06:28:29;22.40;99.90
51841;DHT22;37888;53.246;6.658;2023-06-24T06:30:54;22.00;99.90
51841;DHT22;37888;53.246;6.658;2023-06-24T06:33:22;21.80;99.90
51841;DHT22;37888;53.246;6.658;2023-06-24T06:38:14;21.70;99.90
51841;DHT22;37888;53.246;6.658;2023-06-24T06:40:40;21.40;99.90
51841;DHT22;37888;53.246;6.658;2023-06-24T06:43:06;21.30;99.90
51841;DHT22;37888;53.246;6.658;2023-06-24T06:45:32;21.30;99.90
51841;DHT22;37888;53.246;6.658;2023-06-24T06:47:57;21.20;99.90
51841;DHT22;37888;53.246;6.658;2023-06-24T06:50:23;21.10;99.90
51841;DHT22;37888;53.246;6.658;2023-06-24T06:52:49;21.10;99.90
51841;DHT22;37888;53.246;6.658;2023-06-24T06:55:15;21.10;99.90
51841;DHT22;37888;53.246;6.658;2023-06-24T06:57:40;21.10;99.90
51841;DHT22;37888;53.246;6.658;2023-06-24T07:00:07;21.20;99.90
51841;DHT22;37888;53.246;6.658;2023-06-24T07:02:35;21.20;99.90
51841;DHT22;37888;53.246;6.658;2023-06-24T07:05:01;21.30;99.90
51841;DHT22;37888;53.246;6.658;2023-06-24T07:07:27;21.40;99.90
51841;DHT22;37888;53.246;6.658;2023-06-24T07:09:53;21.50;99.90
51841;DHT22;37888;53.246;6.658;2023-06-24T07:12:18;21.50;99.90
51841;DHT22;37888;53.246;6.658;2023-06-24T07:14:46;21.60;99.90
51841;DHT22;37888;53.246;6.658;2023-06-24T07:17:12;22.00;99.90
51841;DHT22;37888;53.246;6.658;2023-06-24T07:19:37;21.60;99.90
51841;DHT22;37888;53.246;6.658;2023-06-24T07:22:03;21.70;99.90
51841;DHT22;37888;53.246;6.658;2023-06-24T07:24:29;21.70;99.90
51841;DHT22;37888;53.246;6.658;2023-06-24T07:26:55;21.80;99.90
51841;DHT22;37888;53.246;6.658;2023-06-24T07:29:20;21.90;99.90
51841;DHT22;37888;53.246;6.658;2023-06-24T07:31:46;22.10;99.90
51841;DHT22;37888;53.246;6.658;2023-06-24T07:34:12;22.30;99.90
51841;DHT22;37888;53.246;6.658;2023-06-24T07:36:38;22.70;99.90
51841;DHT22;37888;53.246;6.658;2023-06-24T07:39:03;23.00;99.90
51841;DHT22;37888;53.246;6.658;2023-06-24T07:43:55;23.80;99.90
51841;DHT22;37888;53.246;6.658;2023-06-24T07:46:21;23.90;99.90
51841;DHT22;37888;53.246;6.658;2023-06-24T07:48:46;24.20;99.90
51841;DHT22;37888;53.246;6.658;2023-06-24T07:51:12;24.30;99.90
51841;DHT22;37888;53.246;6.658;2023-06-24T07:53:38;24.60;99.90
51841;DHT22;37888;53.246;6.658;2023-06-24T07:56:04;24.60;99.90
51841;DHT22;37888;53.246;6.658;2023-06-24T07:58:30;24.70;99.90
51841;DHT22;37888;53.246;6.658;2023-06-24T08:00:55;24.70;99.90
51841;DHT22;37888;53.246;6.658;2023-06-24T08:03:21;24.70;99.90
51841;DHT22;37888;53.246;6.658;2023-06-24T08:05:48;24.60;99.90
51841;DHT22;37888;53.246;6.658;2023-06-24T08:08:15;24.70;99.90
51841;DHT22;37888;53.246;6.658;2023-06-24T08:10:41;24.70;99.90
51841;DHT22;37888;53.246;6.658;2023-06-24T08:13:06;24.80;99.90
51841;DHT22;37888;53.246;6.658;2023-06-24T08:15:32;24.80;99.90
51841;DHT22;37888;53.246;6.658;2023-06-24T08:17:58;24.80;99.90
51841;DHT22;37888;53.246;6.658;2023-06-24T08:20:24;24.70;99.90
51841;DHT22;37888;53.246;6.658;2023-06-24T08:22:50;24.60;99.90
51841;DHT22;37888;53.246;6.658;2023-06-24T08:25:16;24.50;99.90
51841;DHT22;37888;53.246;6.658;2023-06-24T08:27:41;24.50;99.90
51841;DHT22;37888;53.246;6.658;2023-06-24T08:30:13;24.40;99.90
51841;DHT22;37888;53.246;6.658;2023-06-24T08:32:39;24.40;99.90
51841;DHT22;37888;53.246;6.658;2023-06-24T08:35:07;24.30;99.90
51841;DHT22;37888;53.246;6.658;2023-06-24T08:37:34;24.30;99.90
51841;DHT22;37888;53.246;6.658;2023-06-24T08:43:42;24.30;99.90
51841;DHT22;37888;53.246;6.658;2023-06-24T08:46:28;24.60;99.90
51841;DHT22;37888;53.246;6.658;2023-06-24T08:49:30;24.30;99.90
51841;DHT22;37888;53.246;6.658;2023-06-24T08:52:03;24.30;99.90
51841;DHT22;37888;53.246;6.658;2023-06-24T08:54:30;24.50;99.90
51841;DHT22;37888;53.246;6.658;2023-06-24T08:56:57;24.90;99.90
51841;DHT22;37888;53.246;6.658;2023-06-24T08:59:23;25.50;99.90
51841;DHT22;37888;53.246;6.658;2023-06-24T09:01:52;26.10;99.90
51841;DHT22;37888;53.246;6.658;2023-06-24T09:04:18;26.50;99.90
51841;DHT22;37888;53.246;6.658;2023-06-24T09:06:44;26.90;99.90
51841;DHT22;37888;53.246;6.658;2023-06-24T09:09:22;27.20;99.90
51841;DHT22;37888;53.246;6.658;2023-06-24T09:11:59;27.50;99.90
51841;DHT22;37888;53.246;6.658;2023-06-24T09:14:25;27.80;99.90
51841;DHT22;37888;53.246;6.658;2023-06-24T09:16:54;27.80;99.90
51841;DHT22;37888;53.246;6.658;2023-06-24T09:19:24;27.60;99.90
51841;DHT22;37888;53.246;6.658;2023-06-24T09:22:06;27.70;99.90
51841;DHT22;37888;53.246;6.658;2023-06-24T09:24:34;27.80;99.90
51841;DHT22;37888;53.246;6.658;2023-06-24T09:27:00;27.80;99.90
51841;DHT22;37888;53.246;6.658;2023-06-24T09:29:29;27.80;99.90
51841;DHT22;37888;53.246;6.658;2023-06-24T09:32:07;27.90;99.90
51841;DHT22;37888;53.246;6.658;2023-06-24T09:34:38;27.90;99.50
51841;DHT22;37888;53.246;6.658;2023-06-24T09:37:21;27.90;99.90
51841;DHT22;37888;53.246;6.658;2023-06-24T09:40:05;27.90;99.90
51841;DHT22;37888;53.246;6.658;2023-06-24T09:43:00;27.90;97.10
51841;DHT22;37888;53.246;6.658;2023-06-24T09:45:28;27.80;97.50
51841;DHT22;37888;53.246;6.658;2023-06-24T09:47:55;27.70;98.40
51841;DHT22;37888;53.246;6.658;2023-06-24T09:50:22;27.60;98.50
51841;DHT22;37888;53.246;6.658;2023-06-24T09:52:48;27.40;98.20
51841;DHT22;37888;53.246;6.658;2023-06-24T09:55:17;27.30;98.30
51841;DHT22;37888;53.246;6.658;2023-06-24T09:57:45;27.30;98.70
51841;DHT22;37888;53.246;6.658;2023-06-24T10:00:13;27.40;98.10
51841;DHT22;37888;53.246;6.658;2023-06-24T10:02:43;27.60;97.80
51841;DHT22;37888;53.246;6.658;2023-06-24T10:05:10;27.70;97.20
51841;DHT22;37888;53.246;6.658;2023-06-24T10:07:36;27.80;97.00
51841;DHT22;37888;53.246;6.658;2023-06-24T10:10:04;28.00;97.00
51841;DHT22;37888;53.246;6.658;2023-06-24T10:12:30;28.20;96.70
51841;DHT22;37888;53.246;6.658;2023-06-24T10:14:58;28.20;96.50
51841;DHT22;37888;53.246;6.658;2023-06-24T10:17:24;28.20;95.70
51841;DHT22;37888;53.246;6.658;2023-06-24T10:19:52;28.20;95.60
51841;DHT22;37888;53.246;6.658;2023-06-24T10:22:24;28.30;95.40
51841;DHT22;37888;53.246;6.658;2023-06-24T10:24:52;28.30;94.60
51841;DHT22;37888;53.246;6.658;2023-06-24T10:30:58;27.90;92.70
51841;DHT22;37888;53.246;6.658;2023-06-24T10:33:24;27.80;92.90
51841;DHT22;37888;53.246;6.658;2023-06-24T10:35:50;27.70;92.30
51841;DHT22;37888;53.246;6.658;2023-06-24T10:38:17;27.70;92.20
51841;DHT22;37888;53.246;6.658;2023-06-24T10:40:43;27.60;92.00
51841;DHT22;37888;53.246;6.658;2023-06-24T10:45:51;27.30;91.60
51841;DHT22;37888;53.246;6.658;2023-06-24T10:48:18;27.30;92.20
51841;DHT22;37888;53.246;6.658;2023-06-24T10:50:47;27.60;91.50
51841;DHT22;37888;53.246;6.658;2023-06-24T10:53:13;27.80;91.20
51841;DHT22;37888;53.246;6.658;2023-06-24T10:55:39;28.00;91.20
51841;DHT22;37888;53.246;6.658;2023-06-24T10:58:09;28.10;91.40
51841;DHT22;37888;53.246;6.658;2023-06-24T11:00:36;28.20;91.40
51841;DHT22;37888;53.246;6.658;2023-06-24T11:03:17;28.10;90.80
51841;DHT22;37888;53.246;6.658;2023-06-24T11:05:45;28.00;90.10
51841;DHT22;37888;53.246;6.658;2023-06-24T11:08:12;27.80;90.20
51841;DHT22;37888;53.246;6.658;2023-06-24T11:10:45;27.60;90.90
51841;DHT22;37888;53.246;6.658;2023-06-24T11:13:11;27.40;91.30
51841;DHT22;37888;53.246;6.658;2023-06-24T11:15:39;27.20;91.60
51841;DHT22;37888;53.246;6.658;2023-06-24T11:18:08;27.00;91.20
51841;DHT22;37888;53.246;6.658;2023-06-24T11:20:39;27.10;91.20
51841;DHT22;37888;53.246;6.658;2023-06-24T11:23:09;27.40;91.50
51841;DHT22;37888;53.246;6.658;2023-06-24T11:25:41;27.50;92.00
51841;DHT22;37888;53.246;6.658;2023-06-24T11:28:17;27.70;92.00
51841;DHT22;37888;53.246;6.658;2023-06-24T11:30:43;27.70;90.50
51841;DHT22;37888;53.246;6.658;2023-06-24T11:33:09;27.60;90.10
51841;DHT22;37888;53.246;6.658;2023-06-24T11:35:35;27.60;90.10
51841;DHT22;37888;53.246;6.658;2023-06-24T11:38:02;27.50;90.30
51841;DHT22;37888;53.246;6.658;2023-06-24T11:40:31;27.40;90.50
51841;DHT22;37888;53.246;6.658;2023-06-24T11:43:00;27.20;90.80
51841;DHT22;37888;53.246;6.658;2023-06-24T11:45:26;27.10;90.90
51841;DHT22;37888;53.246;6.658;2023-06-24T11:47:51;27.00;91.40
51841;DHT22;37888;53.246;6.658;2023-06-24T11:50:18;26.90;91.70
51841;DHT22;37888;53.246;6.658;2023-06-24T11:52:50;26.90;92.10
51841;DHT22;37888;53.246;6.658;2023-06-24T12:00:24;26.70;93.10
51841;DHT22;37888;53.246;6.658;2023-06-24T12:02:54;26.60;93.40
51841;DHT22;37888;53.246;6.658;2023-06-24T12:05:25;26.50;94.10
51841;DHT22;37888;53.246;6.658;2023-06-24T12:07:58;26.50;93.30
51841;DHT22;37888;53.246;6.658;2023-06-24T12:10:25;26.30;92.60
51841;DHT22;37888;53.246;6.658;2023-06-24T12:12:51;26.20;92.80
51841;DHT22;37888;53.246;6.658;2023-06-24T12:15:16;26.20;93.80
51841;DHT22;37888;53.246;6.658;2023-06-24T12:17:42;26.40;93.90
51841;DHT22;37888;53.246;6.658;2023-06-24T12:20:08;26.50;94.10
51841;DHT22;37888;53.246;6.658;2023-06-24T12:22:36;26.50;93.60
51841;DHT22;37888;53.246;6.658;2023-06-24T12:25:03;26.40;93.10
51841;DHT22;37888;53.246;6.658;2023-06-24T12:27:29;26.40;93.30
51841;DHT22;37888;53.246;6.658;2023-06-24T12:29:55;26.40;92.60
51841;DHT22;37888;53.246;6.658;2023-06-24T12:32:20;26.40;92.30
51841;DHT22;37888;53.246;6.658;2023-06-24T12:34:46;26.50;92.30
51841;DHT22;37888;53.246;6.658;2023-06-24T12:37:12;26.60;92.50
51841;DHT22;37888;53.246;6.658;2023-06-24T12:39:37;26.70;92.70
51841;DHT22;37888;53.246;6.658;2023-06-24T12:42:03;26.80;93.00
51841;DHT22;37888;53.246;6.658;2023-06-24T12:44:31;26.80;92.20
51841;DHT22;37888;53.246;6.658;2023-06-24T12:46:57;26.70;92.10
51841;DHT22;37888;53.246;6.658;2023-06-24T12:49:23;26.50;91.80
51841;DHT22;37888;53.246;6.658;2023-06-24T12:51:48;26.40;91.60
51841;DHT22;37888;53.246;6.658;2023-06-24T12:54:14;26.40;91.80
51841;DHT22;37888;53.246;6.658;2023-06-24T12:56:40;26.40;91.50
51841;DHT22;37888;53.246;6.658;2023-06-24T12:59:05;26.30;91.70
51841;DHT22;37888;53.246;6.658;2023-06-24T13:01:31;26.30;92.20
51841;DHT22;37888;53.246;6.658;2023-06-24T13:03:57;26.40;92.40
51841;DHT22;37888;53.246;6.658;2023-06-24T13:06:23;26.50;92.60
51841;DHT22;37888;53.246;6.658;2023-06-24T13:08:48;26.60;92.80
51841;DHT22;37888;53.246;6.658;2023-06-24T13:11:14;26.60;92.30
51841;DHT22;37888;53.246;6.658;2023-06-24T13:13:40;26.70;91.90
51841;DHT22;37888;53.246;6.658;2023-06-24T13:16:05;26.80;92.00
51841;DHT22;37888;53.246;6.658;2023-06-24T13:18:31;26.80;92.50
51841;DHT22;37888;53.246;6.658;2023-06-24T13:20:57;26.90;92.90
51841;DHT22;37888;53.246;6.658;2023-06-24T13:23:23;26.70;94.90
51841;DHT22;37888;53.246;6.658;2023-06-24T13:25:48;26.40;99.30
51841;DHT22;37888;53.246;6.658;2023-06-24T13:28:14;26.20;99.90
51841;DHT22;37888;53.246;6.658;2023-06-24T13:30:40;26.00;99.90
51841;DHT22;37888;53.246;6.658;2023-06-24T13:33:05;25.80;99.90
51841;DHT22;37888;53.246;6.658;2023-06-24T13:35:31;25.70;99.90
51841;DHT22;37888;53.246;6.658;2023-06-24T13:37:57;25.70;99.90
51841;DHT22;37888;53.246;6.658;2023-06-24T13:40:24;25.60;99.90
51841;DHT22;37888;53.246;6.658;2023-06-24T13:42:50;25.60;99.90
51841;DHT22;37888;53.246;6.658;2023-06-24T13:45:16;25.40;99.90
51841;DHT22;37888;53.246;6.658;2023-06-24T13:47:41;25.30;99.90
51841;DHT22;37888;53.246;6.658;2023-06-24T13:50:07;25.30;99.90
51841;DHT22;37888;53.246;6.658;2023-06-24T13:52:34;25.20;99.90
51841;DHT22;37888;53.246;6.658;2023-06-24T13:55:00;25.10;99.90
51841;DHT22;37888;53.246;6.658;2023-06-24T13:57:25;25.00;99.90
51841;DHT22;37888;53.246;6.658;2023-06-24T13:59:51;24.90;99.90
51841;DHT22;37888;53.246;6.658;2023-06-24T14:02:24;24.80;99.90
51841;DHT22;37888;53.246;6.658;2023-06-24T14:04:50;24.70;99.90
51841;DHT22;37888;53.246;6.658;2023-06-24T14:07:17;24.80;99.90
51841;DHT22;37888;53.246;6.658;2023-06-24T14:09:43;24.70;99.90
51841;DHT22;37888;53.246;6.658;2023-06-24T14:12:09;24.80;99.90
51841;DHT22;37888;53.246;6.658;2023-06-24T14:14:44;24.80;99.90
51841;DHT22;37888;53.246;6.658;2023-06-24T14:17:10;24.70;99.90
51841;DHT22;37888;53.246;6.658;2023-06-24T14:19:38;24.70;99.90
51841;DHT22;37888;53.246;6.658;2023-06-24T14:22:04;24.70;99.90
51841;DHT22;37888;53.246;6.658;2023-06-24T14:24:37;24.70;99.90
51841;DHT22;37888;53.246;6.658;2023-06-24T14:27:06;24.70;99.90
51841;DHT22;37888;53.246;6.658;2023-06-24T14:29:32;24.70;99.90
51841;DHT22;37888;53.246;6.658;2023-06-24T14:32:00;24.70;99.90
51841;DHT22;37888;53.246;6.658;2023-06-24T14:34:26;24.80;99.90
51841;DHT22;37888;53.246;6.658;2023-06-24T14:36:55;24.80;99.90
51841;DHT22;37888;53.246;6.658;2023-06-24T14:39:21;24.90;99.90
51841;DHT22;37888;53.246;6.658;2023-06-24T14:41:47;25.00;99.90
51841;DHT22;37888;53.246;6.658;2023-06-24T14:44:12;25.10;99.90
51841;DHT22;37888;53.246;6.658;2023-06-24T14:46:38;25.20;99.90
51841;DHT22;37888;53.246;6.658;2023-06-24T14:49:04;25.30;99.90
51841;DHT22;37888;53.246;6.658;2023-06-24T14:51:30;25.30;99.90
51841;DHT22;37888;53.246;6.658;2023-06-24T14:53:55;25.40;99.90
51841;DHT22;37888;53.246;6.658;2023-06-24T14:56:21;25.50;99.90
51841;DHT22;37888;53.246;6.658;2023-06-24T14:58:47;25.40;99.90
51841;DHT22;37888;53.246;6.658;2023-06-24T15:01:13;25.30;99.90
51841;DHT22;37888;53.246;6.658;2023-06-24T15:03:38;25.40;99.90
51841;DHT22;37888;53.246;6.658;2023-06-24T15:06:04;25.40;99.90
51841;DHT22;37888;53.246;6.658;2023-06-24T15:08:30;25.50;99.90
51841;DHT22;37888;53.246;6.658;2023-06-24T15:10:56;25.60;99.90
51841;DHT22;37888;53.246;6.658;2023-06-24T15:13:21;25.60;99.90
51841;DHT22;37888;53.246;6.658;2023-06-24T15:15:47;25.70;99.90
51841;DHT22;37888;53.246;6.658;2023-06-24T15:18:14;25.70;99.90
51841;DHT22;37888;53.246;6.658;2023-06-24T15:20:40;25.60;99.90
51841;DHT22;37888;53.246;6.658;2023-06-24T15:23:06;25.60;99.90
51841;DHT22;37888;53.246;6.658;2023-06-24T15:25:31;25.60;99.90
51841;DHT22;37888;53.246;6.658;2023-06-24T15:27:57;25.60;99.90
51841;DHT22;37888;53.246;6.658;2023-06-24T15:30:24;25.60;99.90
51841;DHT22;37888;53.246;6.658;2023-06-24T15:32:51;25.60;99.90
51841;DHT22;37888;53.246;6.658;2023-06-24T15:35:17;25.60;99.90
51841;DHT22;37888;53.246;6.658;2023-06-24T15:37:42;25.50;99.90
51841;DHT22;37888;53.246;6.658;2023-06-24T15:40:08;25.60;99.90
51841;DHT22;37888;53.246;6.658;2023-06-24T15:42:34;25.50;99.90
51841;DHT22;37888;53.246;6.658;2023-06-24T15:45:00;25.50;99.90
51841;DHT22;37888;53.246;6.658;2023-06-24T15:47:31;25.40;99.90
51841;DHT22;37888;53.246;6.658;2023-06-24T15:49:57;25.30;99.90
51841;DHT22;37888;53.246;6.658;2023-06-24T15:52:23;25.20;99.90
51841;DHT22;37888;53.246;6.658;2023-06-24T15:54:49;25.20;99.90
51841;DHT22;37888;53.246;6.658;2023-06-24T15:57:14;25.10;99.90
51841;DHT22;37888;53.246;6.658;2023-06-24T15:59:40;25.10;99.90
51841;DHT22;37888;53.246;6.658;2023-06-24T16:02:06;25.00;99.90
51841;DHT22;37888;53.246;6.658;2023-06-24T16:04:32;24.90;99.90
51841;DHT22;37888;53.246;6.658;2023-06-24T16:06:58;24.80;99.90